• Join FlightAware (Why Join?)
  • Login
  • US Flag 
01:05AM EST


 

Airport Tracker/Info


-or-


 

Live Flight TrackerFlight Track Log ✈ N411AJ ✈ 20-Mar-2014 ✈ KAPA - KSDL

Flight Track Log - Related Links

Times and Time Zones

All times are in EDT time to prevent confusion due to time zone crossing. See the N411AJ flight status page for this flight to view local times or setup timezone preferences in your user account.

Time Position Orientation Groundspeed Altitude Reporting Facility
EDT Latitude Longitude Course Direction KTS MPH feet Rate Location/Type
06:45PM 39.6167 -104.8667 333° Northwest 221 254 7,900  Level Denver TRACON
06:46PM 39.6667 -104.9000 333° Northwest 290 334 8,000 1,260 Climbing Denver TRACON
06:47PM 39.7333 -104.9500 330° Northwest 284 327 10,200 3,420 Climbing Denver TRACON
06:48PM 39.7506 -105.0561 282° West 321 369 14,400 4,740 Climbing Denver Center
06:49PM 39.7158 -105.1658 248° West 332 382 19,700 4,500 Climbing Denver Center
06:50PM 39.6728 -105.2839 245° Southwest 329 379 23,700 3,300 Climbing Denver Center
06:51PM 39.6314 -105.4014 245° Southwest 354 407 26,600 2,460 Climbing Denver Center
06:52PM 39.5869 -105.5244 245° Southwest 376 433 28,900 2,160 Climbing Denver Center
06:53PM 39.5417 -105.6539 246° West 395 455 31,100 2,220 Climbing Denver Center
06:54PM 39.5061 -105.7842 251° West 390 449 33,500 2,520 Climbing Denver Center
06:55PM 39.4642 -105.9392 251° West 379 436 36,400 2,340 Climbing Denver Center
06:56PM 39.4306 -106.0606 250° West 365 420 38,400 1,500 Climbing Denver Center
06:57PM 39.3950 -106.1836 250° West 366 421 39,500 1,020 Climbing Denver Center
06:58PM 39.3569 -106.3239 251° West 370 426 40,600 960 Climbing Denver Center
06:59PM 39.3214 -106.4464 249° West 374 430 41,500 1,140 Climbing Denver Center
07:00PM 39.2797 -106.5881 249° West 377 434 43,000 720 Climbing Denver Center
07:01PM 39.2461 -106.7089 250° West 376 433 43,000  Level Denver Center
07:02PM 39.1708 -106.8144 227° Southwest 410 472 43,000  Level Denver Center
07:03PM 39.0792 -106.9311 225° Southwest 414 476 43,000  Level Denver Center
07:04PM 39.0050 -107.0289 226° Southwest 407 468 43,000  Level Denver Center
07:05PM 38.9156 -107.1444 225° Southwest 405 466 43,000  Level Denver Center
07:06PM 38.8403 -107.2431 226° Southwest 405 466 43,000  Level Denver Center
07:07PM 38.7767 -107.3236 225° Southwest 405 466 43,000  Level Denver Center
07:08PM 38.6778 -107.4528 226° Southwest 397 457 43,000  Level Denver Center
07:09PM 38.5900 -107.5642 225° Southwest 397 457 43,000  Level Denver Center
07:10PM 38.5147 -107.6614 225° Southwest 398 458 43,000  Level Denver Center
07:11PM 38.4264 -107.7739 225° Southwest 401 461 43,000  Level Denver Center
07:13PM 38.3503 -107.8694 225° Southwest 399 459 43,000  Level Denver Center
07:14PM 38.2628 -107.9806 225° Southwest 399 459 43,000  Level Denver Center
07:15PM 38.1867 -108.0739 224° Southwest 398 458 43,000  Level Denver Center
07:16PM 38.1131 -108.1694 226° Southwest 395 455 43,000  Level Denver Center
07:17PM 38.0306 -108.2692 224° Southwest 389 448 43,000  Level Denver Center
07:18PM 37.9442 -108.3739 224° Southwest 388 447 43,000  Level Denver Center
07:19PM 37.8700 -108.4683 225° Southwest 389 448 43,000  Level Denver Center
07:20PM 37.7833 -108.5789 225° Southwest 394 453 43,000  Level Denver Center
07:21PM 37.7081 -108.6717 224° Southwest 395 455 43,000  Level Denver Center
07:22PM 37.6211 -108.7800 225° Southwest 392 451 43,000  Level Denver Center
07:23PM 37.5458 -108.8683 223° Southwest 389 448 43,000  Level Denver Center
07:24PM 37.4575 -108.9767 224° Southwest 393 452 43,000  Level Denver Center
07:25PM 37.3819 -109.0672 224° Southwest 393 452 43,000  Level Denver Center
07:26PM 37.2933 -109.1758 224° Southwest 395 455 43,000  Level Denver Center
07:27PM 37.2181 -109.2678 224° Southwest 395 455 43,000  Level Denver Center
07:28PM 37.1297 -109.3742 224° Southwest 395 455 43,000  Level Denver Center
07:29PM 37.0542 -109.4639 223° Southwest 395 455 43,000  Level Denver Center
07:30PM 36.9661 -109.5722 225° Southwest 395 455 43,000  Level Denver Center
07:31PM 36.8906 -109.6603 223° Southwest 394 453 43,000  Level Denver Center
07:32PM 36.8019 -109.7650 223° Southwest 393 452 43,000  Level Denver Center
07:33PM 36.7261 -109.8550 224° Southwest 393 452 43,000  Level Denver Center
07:34PM 36.6367 -109.9619 224° Southwest 397 457 43,000  Level Denver Center
07:35PM 36.5594 -110.0522 223° Southwest 397 457 43,000  Level Denver Center
07:36PM 36.4950 -110.1272 223° Southwest 398 458 43,000 -960 Level Denver Center
07:37PM 36.3897 -110.2522 224° Southwest 397 457 41,100 -1,920 Descending Denver Center
07:38PM 36.3108 -110.3436 223° Southwest 393 452 39,100 -1,980 Descending Denver Center
07:39PM 36.2336 -110.4333 223° Southwest 387 445 37,100 -1,860 Descending Denver Center
07:41PM 36.1539 -110.5261 223° Southwest 387 445 35,000 -1,380 Descending Denver Center
07:42PM 36.0547 -110.6414 223° Southwest 400 460 34,000 -480 Descending Denver Center
07:43PM 35.9722 -110.7375 223° Southwest 404 465 34,000  Level Denver Center
07:44PM 35.8711 -110.8533 223° Southwest 407 468 34,000  Level Denver Center
07:45PM 35.7869 -110.9486 223° Southwest 408 470 34,000  Level Denver Center
07:46PM 35.7031 -111.0453 223° Southwest 409 471 34,000 -600 Level Denver Center
07:47PM 35.6131 -111.1161 213° Southwest 401 461 32,900 -1,680 Descending Albuquerque Center
07:48PM 35.4864 -111.1814 203° Southwest 427 491 30,700 -1,860 Descending Albuquerque Center
07:49PM 35.3819 -111.2433 206° Southwest 434 499 29,100 -840 Descending Albuquerque Center
07:50PM 35.2664 -111.3133 206° Southwest 442 509 29,000 -120 Descending Albuquerque Center
07:51PM 35.1547 -111.3792 206° Southwest 445 512 28,900 -1,020 Descending Albuquerque Center
07:52PM 35.0450 -111.4425 205° Southwest 442 509 27,000 -2,100 Descending Albuquerque Center
07:53PM 34.9094 -111.5197 205° Southwest 444 511 24,600 -2,160 Descending Albuquerque Center
07:54PM 34.7981 -111.5836 205° Southwest 446 513 22,600 -1,980 Descending Albuquerque Center
07:55PM 34.6903 -111.6467 206° Southwest 437 503 20,600 -1,980 Descending Albuquerque Center
07:56PM 34.5819 -111.7064 204° Southwest 432 497 18,600 -1,920 Descending Albuquerque Center
07:57PM 34.4778 -111.7661 205° Southwest 421 484 16,700 -1,800 Descending Albuquerque Center
07:58PM 34.3775 -111.8225 205° Southwest 406 467 15,000 -1,860 Descending Albuquerque Center
07:59PM 34.2675 -111.8839 205° Southwest 373 429 12,900 -1,560 Descending Albuquerque Center
08:00PM 34.1933 -111.9219 203° Southwest 299 344 11,800 -1,140 Descending Albuquerque Center
08:01PM 34.1214 -111.9189 178° South 260 299 10,600 -1,260 Descending Albuquerque Center
08:02PM 34.0444 -111.9108 175° South 276 318 9,300 -1,440 Descending Albuquerque Center
08:03PM 33.9519 -111.9028 176° South 284 327 7,700 -1,440 Descending Albuquerque Center
08:04PM 33.8781 -111.8969 176° South 274 315 6,400 -1,200 Descending Albuquerque Center
08:05PM 33.8089 -111.8911 176° South 255 293 5,200 -1,200 Descending Albuquerque Center
08:06PM 33.7467 -111.8858 176° South 229 264 4,000 -1,020 Descending Albuquerque Center
08:07PM 33.6925 -111.8808 176° South 204 235 3,100 -960 Descending Albuquerque Center
08:09PM 33.6444 -111.8844 184° South 170 196 2,100 -780 Descending Albuquerque Center
08:10PM 33.6203 -111.9158 227° Southwest 158 182 1,600 -540 Descending Albuquerque Center